createdAt,value
2018-12-14T00:01:53.248Z,96.90
2018-12-14T00:04:21.108Z,97.20
2018-12-14T00:06:48.872Z,97.10
2018-12-14T00:09:16.755Z,97.20
2018-12-14T00:11:45.628Z,97.30
2018-12-14T00:14:13.799Z,97.10
2018-12-14T00:16:41.387Z,96.90
2018-12-14T00:19:08.970Z,96.70
2018-12-14T00:21:36.579Z,96.80
2018-12-14T00:24:04.135Z,97.00
2018-12-14T00:26:31.712Z,96.90
2018-12-14T00:28:59.350Z,97.00
2018-12-14T00:31:26.947Z,97.10
2018-12-14T00:33:54.664Z,96.50
2018-12-14T00:36:22.302Z,96.90
2018-12-14T00:38:49.885Z,96.50
2018-12-14T00:41:17.539Z,96.20
2018-12-14T00:43:45.108Z,96.50
2018-12-14T00:46:12.736Z,96.50
2018-12-14T00:48:40.340Z,96.40
2018-12-14T00:51:07.929Z,96.50
2018-12-14T00:53:35.516Z,96.50
2018-12-14T00:56:03.133Z,96.70
2018-12-14T00:58:30.731Z,96.50
2018-12-14T01:00:58.283Z,96.50
2018-12-14T01:03:25.871Z,96.60
2018-12-14T01:05:53.432Z,96.50
2018-12-14T01:08:22.399Z,96.70
2018-12-14T01:10:49.952Z,96.80
2018-12-14T01:13:17.580Z,96.70
2018-12-14T01:15:45.143Z,97.10
2018-12-14T01:18:12.711Z,96.60
2018-12-14T01:20:40.317Z,96.50
2018-12-14T01:23:07.991Z,96.80
2018-12-14T01:25:35.567Z,96.80
2018-12-14T01:28:03.206Z,96.50
2018-12-14T01:30:30.781Z,96.50
2018-12-14T01:32:58.353Z,96.50
2018-12-14T01:35:25.985Z,96.50
2018-12-14T01:37:53.560Z,96.40
2018-12-14T01:40:21.161Z,96.30
2018-12-14T01:42:48.729Z,96.40
2018-12-14T01:45:16.342Z,96.40
2018-12-14T01:47:43.947Z,96.10
2018-12-14T01:50:11.507Z,95.80
2018-12-14T01:52:39.335Z,96.00
2018-12-14T01:55:07.020Z,96.40
2018-12-14T01:57:34.967Z,96.20
2018-12-14T02:00:02.827Z,96.30
2018-12-14T02:02:30.426Z,96.20
2018-12-14T02:04:58.034Z,96.40
2018-12-14T02:07:25.612Z,96.40
2018-12-14T02:09:53.206Z,96.10
2018-12-14T02:12:20.830Z,96.50
2018-12-14T02:14:48.394Z,96.50
2018-12-14T02:17:16.034Z,96.20
2018-12-14T02:19:43.619Z,96.20
2018-12-14T02:22:11.211Z,96.10
2018-12-14T02:24:38.823Z,96.60
2018-12-14T02:27:06.726Z,96.40
2018-12-14T02:29:34.541Z,96.20
2018-12-14T02:32:02.289Z,96.10
2018-12-14T02:34:30.084Z,96.50
2018-12-14T02:36:57.786Z,96.50
2018-12-14T02:39:25.624Z,96.50
2018-12-14T02:41:53.377Z,96.60
2018-12-14T02:44:21.180Z,96.80
2018-12-14T02:46:48.979Z,97.00
2018-12-14T02:49:16.690Z,96.80
2018-12-14T02:51:44.427Z,96.50
2018-12-14T02:54:12.180Z,96.40
2018-12-14T02:56:39.911Z,96.20
2018-12-14T02:59:07.753Z,96.40
2018-12-14T03:01:35.608Z,96.40
2018-12-14T03:04:04.025Z,96.10
2018-12-14T03:06:31.761Z,96.30
2018-12-14T03:08:59.524Z,96.60
2018-12-14T03:11:27.233Z,95.90
2018-12-14T03:13:54.998Z,96.10
2018-12-14T03:16:22.782Z,96.20
2018-12-14T03:18:50.555Z,96.50
2018-12-14T03:21:18.363Z,97.10
2018-12-14T03:23:46.073Z,97.10
2018-12-14T03:26:13.943Z,97.10
2018-12-14T03:28:41.746Z,97.20
2018-12-14T03:31:09.527Z,97.00
2018-12-14T03:33:38.018Z,96.60
2018-12-14T03:36:05.770Z,96.80
2018-12-14T03:38:33.496Z,96.70
2018-12-14T03:41:02.272Z,96.90
2018-12-14T03:43:31.940Z,96.90
2018-12-14T03:45:59.678Z,96.70
2018-12-14T03:48:27.445Z,96.70
2018-12-14T03:50:55.252Z,96.60
2018-12-14T03:53:23.025Z,96.60
2018-12-14T03:55:50.801Z,96.60
2018-12-14T03:58:18.591Z,96.40
2018-12-14T04:00:46.544Z,96.60
2018-12-14T04:03:14.305Z,96.50
2018-12-14T04:05:42.182Z,96.50
2018-12-14T04:08:09.961Z,96.60
2018-12-14T04:10:38.717Z,96.90
2018-12-14T04:13:06.480Z,96.70
2018-12-14T04:15:34.227Z,96.20
2018-12-14T04:18:02.032Z,96.70
2018-12-14T04:20:29.802Z,97.10
2018-12-14T04:22:57.542Z,96.50
2018-12-14T04:25:25.301Z,97.20
2018-12-14T04:27:53.090Z,96.80
2018-12-14T04:30:20.969Z,96.60
2018-12-14T04:32:48.768Z,97.00
2018-12-14T04:35:17.170Z,97.00
2018-12-14T04:37:44.934Z,97.00
2018-12-14T04:40:13.606Z,96.90
2018-12-14T04:42:48.616Z,96.70
2018-12-14T04:45:12.003Z,96.90
2018-12-14T04:47:40.698Z,96.90
2018-12-14T04:50:08.618Z,97.10
2018-12-14T04:52:36.397Z,96.70
2018-12-14T04:55:05.712Z,97.30
2018-12-14T04:57:33.519Z,97.30
2018-12-14T05:00:01.322Z,97.10
2018-12-14T05:02:29.117Z,97.20
2018-12-14T05:04:56.958Z,97.70
2018-12-14T05:07:24.735Z,97.40
2018-12-14T05:09:52.618Z,97.10
2018-12-14T05:12:20.407Z,97.30
2018-12-14T05:14:48.403Z,97.30
2018-12-14T05:17:16.861Z,97.50
2018-12-14T05:19:44.607Z,97.30
2018-12-14T05:22:12.886Z,97.10
2018-12-14T05:24:40.651Z,97.00
2018-12-14T05:27:08.661Z,96.80
2018-12-14T05:29:36.392Z,96.80
2018-12-14T05:32:05.075Z,96.60
2018-12-14T05:34:32.946Z,97.00
2018-12-14T05:37:00.701Z,96.70
2018-12-14T05:39:29.373Z,96.40
2018-12-14T05:41:57.102Z,96.40
2018-12-14T05:44:25.041Z,96.70
2018-12-14T05:46:52.822Z,96.60
2018-12-14T05:49:21.311Z,96.80
2018-12-14T05:51:49.944Z,96.70
2018-12-14T05:54:17.810Z,96.70
2018-12-14T05:56:46.063Z,96.80
2018-12-14T05:59:13.948Z,97.00
2018-12-14T06:01:42.242Z,96.80
2018-12-14T06:04:10.144Z,97.00
2018-12-14T06:06:38.152Z,96.60
2018-12-14T06:09:07.619Z,96.90
2018-12-14T06:11:35.371Z,96.60
2018-12-14T06:14:03.130Z,96.60
2018-12-14T06:16:30.870Z,97.00
2018-12-14T06:18:58.661Z,96.80
2018-12-14T06:21:27.160Z,96.90
2018-12-14T06:23:54.940Z,96.30
2018-12-14T06:26:22.644Z,96.80
2018-12-14T06:28:50.393Z,96.80
2018-12-14T06:31:18.185Z,96.90
2018-12-14T06:33:45.918Z,97.10
2018-12-14T06:36:13.693Z,97.00
2018-12-14T06:38:41.636Z,97.20
2018-12-14T06:41:10.484Z,96.50
2018-12-14T06:43:38.609Z,96.60
2018-12-14T06:46:07.448Z,96.90
2018-12-14T06:48:35.798Z,96.60
2018-12-14T06:51:05.426Z,96.30
2018-12-14T06:53:35.030Z,96.50
2018-12-14T06:56:04.296Z,96.10
2018-12-14T06:58:32.942Z,96.20
2018-12-14T07:01:01.549Z,96.60
2018-12-14T07:03:31.014Z,96.10
2018-12-14T07:05:58.844Z,96.10
2018-12-14T07:08:27.670Z,96.20
2018-12-14T07:10:56.155Z,96.10
2018-12-14T07:13:25.311Z,96.20
2018-12-14T07:15:54.034Z,96.50
2018-12-14T07:18:22.695Z,96.40
2018-12-14T07:20:51.369Z,96.80
2018-12-14T07:23:20.113Z,96.80
2018-12-14T07:25:48.577Z,97.00
2018-12-14T07:28:17.436Z,96.80
2018-12-14T07:30:46.738Z,96.70
2018-12-14T07:33:17.006Z,96.70
2018-12-14T07:35:50.482Z,96.90
2018-12-14T07:38:19.806Z,96.10
2018-12-14T07:40:48.410Z,96.90
2018-12-14T07:43:16.966Z,96.90
2018-12-14T07:45:45.907Z,97.00
2018-12-14T07:48:13.767Z,97.00
2018-12-14T07:50:42.358Z,96.80
2018-12-14T07:53:11.430Z,96.90
2018-12-14T07:55:39.907Z,96.60
2018-12-14T07:58:08.413Z,96.70
2018-12-14T08:00:36.808Z,96.90
2018-12-14T08:03:07.561Z,96.90
2018-12-14T08:05:36.874Z,96.90
2018-12-14T08:08:05.563Z,96.30
2018-12-14T08:10:33.885Z,96.60
2018-12-14T08:13:04.319Z,96.50
2018-12-14T08:15:33.031Z,96.80
2018-12-14T08:18:01.514Z,96.60
2018-12-14T08:20:29.990Z,96.60
2018-12-14T08:25:32.614Z,96.50
2018-12-14T08:28:03.333Z,96.70
2018-12-14T08:30:31.774Z,96.90
2018-12-14T08:33:00.520Z,96.70
2018-12-14T08:35:29.169Z,96.50
2018-12-14T08:37:57.960Z,96.40
2018-12-14T08:40:26.607Z,96.70
2018-12-14T08:42:57.279Z,96.40
2018-12-14T08:45:25.167Z,96.70
2018-12-14T08:47:53.022Z,96.70
2018-12-14T08:50:21.573Z,96.40
2018-12-14T08:52:49.467Z,95.70
2018-12-14T08:55:17.499Z,95.80
2018-12-14T08:57:46.826Z,96.20
2018-12-14T09:00:14.813Z,96.20
2018-12-14T09:02:43.917Z,96.10
2018-12-14T09:05:11.850Z,96.40
2018-12-14T09:07:40.371Z,96.40
2018-12-14T09:10:09.226Z,96.20
2018-12-14T09:12:38.241Z,96.40
2018-12-14T09:15:08.658Z,96.30
2018-12-14T09:17:37.824Z,96.30
2018-12-14T09:20:06.255Z,96.40
2018-12-14T09:22:34.762Z,96.50
2018-12-14T09:25:04.058Z,96.40
2018-12-14T09:27:33.458Z,96.10
2018-12-14T09:30:04.197Z,96.00
2018-12-14T09:32:32.514Z,96.20
2018-12-14T09:35:00.865Z,95.90
2018-12-14T09:37:28.767Z,96.20
2018-12-14T09:39:57.408Z,96.20
2018-12-14T09:42:27.572Z,95.80
2018-12-14T09:44:57.201Z,96.30
2018-12-14T09:47:25.303Z,95.70
2018-12-14T09:49:54.311Z,96.10
2018-12-14T09:52:22.136Z,95.60
2018-12-14T09:54:51.371Z,95.30
2018-12-14T09:57:19.205Z,96.10
2018-12-14T09:59:47.462Z,96.00
2018-12-14T10:02:15.641Z,96.10
2018-12-14T10:04:43.913Z,95.80
2018-12-14T10:07:11.792Z,95.30
2018-12-14T10:09:41.047Z,95.40
2018-12-14T10:12:08.922Z,95.80
2018-12-14T10:14:36.686Z,96.30
2018-12-14T10:17:05.326Z,96.60
2018-12-14T10:19:34.260Z,96.50
2018-12-14T10:22:02.140Z,96.20
2018-12-14T10:24:32.503Z,96.00
2018-12-14T10:27:01.285Z,95.50
2018-12-14T10:29:30.026Z,96.10
2018-12-14T10:31:58.281Z,96.20
2018-12-14T10:34:27.979Z,96.00
2018-12-14T10:36:56.588Z,95.80
2018-12-14T10:39:25.250Z,96.00
2018-12-14T10:41:53.742Z,95.80
2018-12-14T10:44:22.207Z,95.90
2018-12-14T10:46:52.140Z,95.60
2018-12-14T10:49:20.432Z,95.60
2018-12-14T10:51:48.414Z,95.80
2018-12-14T10:54:16.533Z,95.80
2018-12-14T10:56:44.806Z,96.10
2018-12-14T10:59:13.450Z,95.80
2018-12-14T11:01:47.056Z,94.80
2018-12-14T11:04:15.932Z,95.10
2018-12-14T11:06:44.716Z,95.30
2018-12-14T11:09:12.984Z,95.10
2018-12-14T11:11:41.099Z,95.70
2018-12-14T11:14:13.992Z,95.30
2018-12-14T11:16:40.522Z,95.50
2018-12-14T11:19:08.599Z,95.70
2018-12-14T11:21:36.887Z,95.90
2018-12-14T11:24:05.358Z,95.80
2018-12-14T11:26:33.228Z,95.90
2018-12-14T11:29:01.103Z,95.50
2018-12-14T11:31:29.434Z,95.80
2018-12-14T11:33:57.354Z,95.50
2018-12-14T11:36:25.236Z,95.50
2018-12-14T11:38:53.123Z,94.80
2018-12-14T11:41:21.378Z,95.20
2018-12-14T11:43:49.220Z,95.50
2018-12-14T11:46:18.276Z,95.30
2018-12-14T11:48:46.080Z,95.60
2018-12-14T11:51:14.506Z,95.80
2018-12-14T11:53:42.572Z,95.50
2018-12-14T11:56:10.780Z,95.40
2018-12-14T11:58:39.066Z,95.20
2018-12-14T12:01:06.924Z,95.20
2018-12-14T12:03:34.844Z,94.70
2018-12-14T12:06:03.039Z,95.40
2018-12-14T12:08:30.950Z,95.30
2018-12-14T12:11:00.519Z,95.20
2018-12-14T12:13:29.331Z,94.80
2018-12-14T12:15:59.487Z,94.40
2018-12-14T12:18:28.321Z,94.50
2018-12-14T12:20:56.564Z,95.10
2018-12-14T12:23:25.587Z,94.70
2018-12-14T12:25:54.131Z,94.80
2018-12-14T12:28:24.172Z,94.00
2018-12-14T12:30:52.735Z,93.80
2018-12-14T12:33:22.241Z,94.10
2018-12-14T12:35:51.521Z,94.80
2018-12-14T12:38:21.209Z,94.60
2018-12-14T12:40:51.296Z,95.20
2018-12-14T12:43:21.122Z,95.00
2018-12-14T12:45:49.162Z,95.10
2018-12-14T12:48:17.270Z,94.70
2018-12-14T12:50:45.635Z,95.30
2018-12-14T12:53:15.518Z,95.30
2018-12-14T12:55:43.647Z,94.90
2018-12-14T12:58:11.440Z,94.90
2018-12-14T13:00:40.851Z,94.60
2018-12-14T13:03:09.657Z,94.70
2018-12-14T13:05:37.461Z,95.10
2018-12-14T13:08:05.281Z,95.10
2018-12-14T13:10:34.944Z,94.40
2018-12-14T13:13:02.760Z,94.50
2018-12-14T13:15:30.975Z,94.40
2018-12-14T13:17:58.867Z,94.80
2018-12-14T13:20:26.767Z,95.30
2018-12-14T13:22:54.657Z,94.90
2018-12-14T13:25:23.004Z,95.10
2018-12-14T13:27:51.032Z,94.70
2018-12-14T13:30:19.767Z,94.10
2018-12-14T13:32:48.974Z,93.80
2018-12-14T13:35:17.436Z,94.20
2018-12-14T13:37:46.191Z,94.40
2018-12-14T13:40:15.666Z,94.40
2018-12-14T13:42:44.247Z,94.40
2018-12-14T13:45:12.084Z,94.10
2018-12-14T13:47:39.992Z,93.60
2018-12-14T13:50:07.981Z,93.70
2018-12-14T13:52:36.935Z,94.10
2018-12-14T13:55:05.434Z,93.80
2018-12-14T13:57:33.148Z,94.90
2018-12-14T14:00:02.162Z,94.40
2018-12-14T14:02:29.975Z,94.20
2018-12-14T14:04:58.217Z,94.70
2018-12-14T14:07:26.012Z,94.90
2018-12-14T14:09:53.905Z,94.90
2018-12-14T14:12:22.021Z,95.30
2018-12-14T14:14:53.147Z,95.20
2018-12-14T14:17:21.188Z,95.00
2018-12-14T14:19:49.489Z,94.90
2018-12-14T14:22:19.251Z,94.70
2018-12-14T14:24:47.715Z,94.20
2018-12-14T14:27:16.113Z,93.80
2018-12-14T14:29:45.270Z,94.00
2018-12-14T14:32:14.042Z,94.20
2018-12-14T14:34:43.755Z,93.90
2018-12-14T14:37:12.603Z,94.00
2018-12-14T14:39:40.367Z,94.80
2018-12-14T14:42:09.337Z,94.50
2018-12-14T14:44:39.399Z,94.20
2018-12-14T14:47:07.770Z,94.00
2018-12-14T14:49:37.125Z,94.00
2018-12-14T14:52:05.761Z,94.00
2018-12-14T14:54:39.821Z,93.70
2018-12-14T14:57:07.445Z,94.30
2018-12-14T14:59:36.789Z,94.00
2018-12-14T15:02:04.659Z,94.20
2018-12-14T15:04:35.151Z,94.10
2018-12-14T15:07:04.816Z,94.60
2018-12-14T15:09:32.687Z,94.40
2018-12-14T15:12:02.170Z,94.00
2018-12-14T15:14:30.114Z,93.70
2018-12-14T15:16:57.887Z,94.00
2018-12-14T15:19:26.240Z,93.90
2018-12-14T15:21:54.235Z,93.60
2018-12-14T15:24:22.482Z,93.80
2018-12-14T15:26:51.014Z,94.30
2018-12-14T15:29:18.925Z,94.40
2018-12-14T15:31:48.382Z,94.30
2018-12-14T15:34:16.255Z,94.80
2018-12-14T15:36:45.047Z,94.60
2018-12-14T15:39:13.395Z,94.90
2018-12-14T15:41:41.324Z,94.80
2018-12-14T15:44:09.044Z,95.20
2018-12-14T15:46:38.830Z,95.00
2018-12-14T15:49:08.077Z,94.90
2018-12-14T15:51:37.363Z,94.70
2018-12-14T15:54:06.070Z,94.30
2018-12-14T15:56:35.230Z,94.20
2018-12-14T15:59:03.699Z,94.60
2018-12-14T16:01:32.459Z,94.30
2018-12-14T16:04:08.508Z,94.70
2018-12-14T16:06:37.045Z,94.70
2018-12-14T16:09:06.001Z,94.50
2018-12-14T16:11:35.215Z,94.40
2018-12-14T16:14:04.054Z,94.30
2018-12-14T16:16:35.594Z,94.60
2018-12-14T16:19:04.191Z,93.80
2018-12-14T16:21:33.743Z,93.50
2018-12-14T16:24:01.482Z,93.90
2018-12-14T16:26:29.340Z,94.30
2018-12-14T16:28:57.113Z,94.40
2018-12-14T16:31:24.887Z,94.60
2018-12-14T16:33:52.644Z,94.20
2018-12-14T16:36:21.234Z,94.30
2018-12-14T16:38:48.915Z,94.10
2018-12-14T16:41:16.687Z,94.30
2018-12-14T16:43:44.495Z,94.00
2018-12-14T16:46:12.373Z,94.80
2018-12-14T16:48:40.206Z,95.00
2018-12-14T16:51:07.939Z,95.10
2018-12-14T16:53:37.800Z,94.90
2018-12-14T16:56:05.623Z,94.80
2018-12-14T16:58:33.449Z,94.50
2018-12-14T17:01:01.225Z,94.90
2018-12-14T17:03:29.183Z,94.50
2018-12-14T17:05:56.992Z,94.70
2018-12-14T17:08:24.846Z,94.70
2018-12-14T17:10:52.684Z,94.50
2018-12-14T17:13:21.324Z,94.50
2018-12-14T17:15:49.035Z,94.30
2018-12-14T17:18:16.888Z,94.20
2018-12-14T17:20:44.657Z,94.40
2018-12-14T17:23:12.563Z,94.10
2018-12-14T17:25:40.319Z,94.50
2018-12-14T17:28:08.098Z,94.40
2018-12-14T17:30:35.801Z,94.40
2018-12-14T17:33:03.751Z,93.90
2018-12-14T17:35:31.602Z,94.20
2018-12-14T17:37:59.344Z,94.50
2018-12-14T17:40:27.155Z,94.40
2018-12-14T17:42:55.091Z,94.60
2018-12-14T17:45:23.602Z,94.30
2018-12-14T17:47:51.337Z,94.30
2018-12-14T17:50:19.284Z,94.90
2018-12-14T17:52:47.214Z,94.30
2018-12-14T17:55:15.050Z,94.20
2018-12-14T17:57:42.848Z,94.40
2018-12-14T18:00:10.774Z,94.70
2018-12-14T18:02:38.859Z,94.40
2018-12-14T18:05:08.601Z,94.50
2018-12-14T18:07:36.392Z,94.30
2018-12-14T18:10:04.453Z,94.20
2018-12-14T18:12:32.286Z,94.50
2018-12-14T18:14:59.946Z,94.80
2018-12-14T18:17:27.691Z,93.90
2018-12-14T18:19:55.489Z,93.70
2018-12-14T18:22:24.792Z,93.70
2018-12-14T18:24:54.874Z,94.40
2018-12-14T18:27:22.795Z,93.80
2018-12-14T18:29:50.531Z,94.20
2018-12-14T18:32:18.335Z,94.50
2018-12-14T18:34:46.179Z,94.30
2018-12-14T18:37:13.950Z,94.10
2018-12-14T18:39:41.831Z,94.20
2018-12-14T18:42:09.612Z,94.50
2018-12-14T18:44:37.350Z,94.50
2018-12-14T18:47:06.030Z,94.00
2018-12-14T18:49:33.775Z,93.80
2018-12-14T18:52:01.532Z,94.10
2018-12-14T18:54:29.289Z,94.00
2018-12-14T18:56:57.041Z,94.30
2018-12-14T18:59:24.894Z,94.50
2018-12-14T19:01:53.489Z,94.50
2018-12-14T19:04:21.271Z,94.40
2018-12-14T19:06:48.981Z,94.40
2018-12-14T19:09:16.723Z,94.40
2018-12-14T19:11:44.523Z,94.30
2018-12-14T19:14:12.320Z,94.80
2018-12-14T19:16:40.056Z,94.50
2018-12-14T19:19:07.855Z,94.20
2018-12-14T19:21:35.590Z,94.10
2018-12-14T19:24:03.290Z,94.20
2018-12-14T19:26:31.172Z,94.60
2018-12-14T19:28:59.891Z,94.70
2018-12-14T19:31:27.728Z,94.70
2018-12-14T19:33:56.317Z,94.60
2018-12-14T19:36:24.100Z,94.60
2018-12-14T19:38:51.953Z,94.50
2018-12-14T19:41:19.709Z,94.90
2018-12-14T19:43:47.491Z,95.10
2018-12-14T19:46:15.342Z,94.90
2018-12-14T19:48:43.077Z,94.90
2018-12-14T19:51:10.939Z,94.90
2018-12-14T19:53:38.767Z,94.90
2018-12-14T19:56:06.576Z,95.10
2018-12-14T19:58:34.467Z,94.50
2018-12-14T20:01:02.268Z,94.40
2018-12-14T20:03:30.119Z,94.50
2018-12-14T20:05:57.885Z,94.30
2018-12-14T20:08:25.654Z,94.50
2018-12-14T20:10:53.428Z,94.70
2018-12-14T20:13:21.306Z,95.00
2018-12-14T20:15:49.051Z,95.40
2018-12-14T20:18:17.794Z,95.00
2018-12-14T20:20:45.529Z,94.30
2018-12-14T20:23:13.267Z,94.40
2018-12-14T20:25:40.974Z,94.50
2018-12-14T20:28:08.746Z,94.60
2018-12-14T20:30:37.286Z,94.50
2018-12-14T20:33:05.077Z,94.20
2018-12-14T20:35:32.950Z,94.80
2018-12-14T20:38:00.977Z,94.10
2018-12-14T20:40:28.720Z,94.70
2018-12-14T20:42:57.410Z,94.80
2018-12-14T20:45:25.190Z,94.50
2018-12-14T20:47:52.968Z,94.60
2018-12-14T20:50:20.723Z,94.90
2018-12-14T20:52:48.645Z,94.30
2018-12-14T20:55:16.344Z,94.20
2018-12-14T20:57:44.176Z,94.30
2018-12-14T21:00:12.184Z,94.50
2018-12-14T21:02:40.079Z,94.30
2018-12-14T21:05:08.075Z,94.80
2018-12-14T21:07:36.597Z,94.40
2018-12-14T21:10:04.916Z,94.60
2018-12-14T21:12:33.290Z,94.50
2018-12-14T21:15:01.095Z,94.70
2018-12-14T21:17:28.845Z,94.90
2018-12-14T21:19:56.581Z,94.40
2018-12-14T21:22:24.261Z,94.40
2018-12-14T21:24:52.002Z,94.70
2018-12-14T21:27:19.732Z,95.00
2018-12-14T21:29:47.456Z,94.60
2018-12-14T21:32:15.189Z,94.70
2018-12-14T21:34:42.918Z,94.30
2018-12-14T21:37:11.296Z,94.10
2018-12-14T21:39:39.633Z,94.20
2018-12-14T21:42:08.125Z,94.60
2018-12-14T21:44:35.840Z,94.30
2018-12-14T21:47:03.685Z,94.30
2018-12-14T21:49:31.382Z,94.60
2018-12-14T21:51:59.191Z,94.30
2018-12-14T21:54:26.870Z,94.70
2018-12-14T21:56:54.605Z,94.80
2018-12-14T21:59:22.398Z,94.60
2018-12-14T22:01:50.098Z,94.50
2018-12-14T22:04:17.894Z,95.00
2018-12-14T22:06:45.630Z,94.60
2018-12-14T22:09:13.416Z,94.60
2018-12-14T22:11:41.966Z,94.70
2018-12-14T22:14:09.655Z,94.90
2018-12-14T22:16:39.340Z,95.00
2018-12-14T22:19:07.307Z,94.60
2018-12-14T22:21:35.226Z,94.60
2018-12-14T22:24:02.911Z,94.50
2018-12-14T22:26:31.255Z,94.90
2018-12-14T22:28:59.115Z,95.30
2018-12-14T22:31:26.775Z,95.70
2018-12-14T22:33:54.633Z,95.40
2018-12-14T22:36:23.047Z,95.20
2018-12-14T22:38:50.841Z,94.80
2018-12-14T22:41:18.574Z,95.00
2018-12-14T22:43:46.316Z,95.00
2018-12-14T22:46:14.008Z,95.30
2018-12-14T22:48:42.292Z,95.30
2018-12-14T22:51:10.070Z,95.40
2018-12-14T22:53:37.837Z,95.60
2018-12-14T22:56:05.638Z,95.50
2018-12-14T22:58:33.433Z,95.30
2018-12-14T23:01:01.306Z,95.10
2018-12-14T23:03:29.287Z,95.10
2018-12-14T23:05:57.093Z,94.90
2018-12-14T23:08:24.885Z,95.10
2018-12-14T23:10:54.633Z,95.00
2018-12-14T23:13:22.489Z,94.60
2018-12-14T23:15:50.229Z,94.30
2018-12-14T23:18:18.013Z,94.80
2018-12-14T23:20:45.804Z,94.90
2018-12-14T23:23:13.546Z,94.80
2018-12-14T23:25:42.096Z,94.90
2018-12-14T23:28:09.812Z,95.10
2018-12-14T23:30:37.566Z,95.00
2018-12-14T23:33:06.012Z,95.00
2018-12-14T23:35:35.368Z,95.50
2018-12-14T23:38:03.061Z,95.50
2018-12-14T23:40:30.837Z,95.40
2018-12-14T23:42:58.663Z,95.60
2018-12-14T23:45:26.367Z,95.50
2018-12-14T23:47:54.040Z,95.80
2018-12-14T23:50:21.843Z,95.50
2018-12-14T23:52:49.565Z,95.30
2018-12-14T23:55:17.329Z,95.10
2018-12-14T23:57:45.077Z,95.10
